Time;durP1;ratioP1;P1;durP2;ratioP2;P2;SDS_P1;SDS_P2;PMS_P1;PMS_P2;Temp;Humidity;BMP_temperature;BMP_pressure;BME280_temperature;BME280_humidity;BME280_pressure;Samples;Min_cycle;Max_cycle;Signal;HPM_P1;HPM_P2
2024/01/28 00:02:20;;;;;;;;;16.75;13.00;;;;;15.86;37.74;102595.50;5095290;27;51274;-57
2024/01/28 00:04:46;;;;;;;;;10.25;10.25;;;;;15.86;37.92;102603.59;5096693;27;45954;-55
2024/01/28 00:07:11;;;;;;;;;10.00;10.00;;;;;15.82;37.87;102591.16;5099509;27;56212;-57
2024/01/28 00:09:36;;;;;;;;;13.25;11.00;;;;;15.74;38.05;102560.78;5099992;27;45496;-57
2024/01/28 00:12:02;;;;;;;;;12.25;11.25;;;;;15.77;37.61;102560.69;5092932;27;45675;-58
2024/01/28 00:14:27;;;;;;;;;10.50;10.50;;;;;15.81;37.91;102559.66;5099677;27;45397;-56
2024/01/28 00:16:53;;;;;;;;;13.75;12.25;;;;;15.82;37.95;102542.47;5101423;27;62563;-55
2024/01/28 00:19:18;;;;;;;;;12.75;12.75;;;;;15.75;37.66;102530.13;5096915;27;45477;-56
2024/01/28 00:21:43;;;;;;;;;12.25;12.25;;;;;15.78;37.78;102539.00;5081855;27;49618;-57
2024/01/28 00:24:08;;;;;;;;;10.75;9.25;;;;;15.72;37.93;102520.31;5099231;27;59262;-57
2024/01/28 00:26:38;;;;;;;;;16.75;13.75;;;;;15.74;37.89;102526.53;5096861;27;46303;-57
2024/01/28 00:29:04;;;;;;;;;11.75;10.50;;;;;15.74;37.55;102520.22;5100166;27;45285;-57
2024/01/28 05:31:52;;;;;;;;;13.50;11.75;;;;;14.15;40.69;102328.09;3189373;26;45892;-75
2024/01/28 05:34:17;;;;;;;;;11.25;11.00;;;;;14.10;40.91;102326.50;5044425;28;45858;-76
2024/01/28 05:36:47;;;;;;;;;11.00;11.00;;;;;14.09;40.85;102320.22;5066042;28;45954;-76
2024/01/28 05:39:13;;;;;;;;;9.75;8.25;;;;;14.17;41.09;102333.44;5050649;28;45553;-76
2024/01/28 05:41:38;;;;;;;;;8.75;8.75;;;;;14.17;40.98;102337.03;5051701;28;45483;-75
2024/01/28 05:44:04;;;;;;;;;15.25;12.00;;;;;14.18;41.21;102324.41;5051661;28;46294;-76
2024/01/28 05:46:29;;;;;;;;;17.50;11.75;;;;;14.27;41.06;102337.59;5051171;28;45486;-76
2024/01/28 05:48:55;;;;;;;;;12.75;12.50;;;;;14.24;41.21;102335.88;5053049;28;45553;-76
2024/01/28 05:51:20;;;;;;;;;12.00;11.00;;;;;14.19;41.06;102324.38;5053832;28;45222;-77
2024/01/28 05:53:45;;;;;;;;;13.50;11.50;;;;;14.28;41.21;102333.94;5053233;28;46146;-74
2024/01/28 05:56:11;;;;;;;;;14.50;11.75;;;;;14.26;40.97;102331.31;5053289;28;45392;-75
2024/01/28 05:58:36;;;;;;;;;11.50;10.00;;;;;14.26;41.14;102322.31;5053327;28;45361;-75
2024/01/28 06:01:02;;;;;;;;;14.25;11.75;;;;;14.23;40.95;102319.72;5053454;28;46005;-76
2024/01/28 06:03:28;;;;;;;;;14.50;13.00;;;;;14.24;41.14;102319.69;5053189;28;46132;-75
2024/01/28 06:05:53;;;;;;;;;11.75;11.75;;;;;14.13;41.28;102311.06;5053148;28;45450;-76
2024/01/28 06:08:19;;;;;;;;;18.50;12.25;;;;;14.06;41.64;102304.16;5053632;28;45462;-76
2024/01/28 06:10:44;;;;;;;;;13.00;12.00;;;;;14.14;41.23;102322.75;5053311;28;45458;-76
2024/01/28 06:13:09;;;;;;;;;15.25;15.25;;;;;14.17;41.26;102326.22;5051482;28;45613;-76
2024/01/28 06:15:35;;;;;;;;;12.00;12.00;;;;;13.88;41.08;102280.53;5051640;28;45527;-75
2024/01/28 06:18:01;;;;;;;;;18.00;15.25;;;;;14.06;41.15;102311.34;5052689;28;46037;-74
2024/01/28 06:20:26;;;;;;;;;13.50;13.50;;;;;14.03;41.57;102317.75;5053028;28;46346;-75
2024/01/28 06:22:51;;;;;;;;;14.50;13.00;;;;;13.97;41.33;102297.25;5052428;28;45435;-75
2024/01/28 06:25:17;;;;;;;;;17.50;14.50;;;;;14.03;41.01;102301.59;5053124;28;45457;-75
2024/01/28 06:27:42;;;;;;;;;15.00;13.25;;;;;13.99;41.37;102306.19;5052512;28;46025;-76
2024/01/28 06:30:08;;;;;;;;;21.00;17.25;;;;;13.97;41.56;102302.66;5053021;28;58817;-76
2024/01/28 06:32:34;;;;;;;;;15.50;14.50;;;;;13.92;41.29;102311.84;5051808;28;46030;-77
2024/01/28 06:34:59;;;;;;;;;15.00;15.00;;;;;13.91;41.48;102305.56;5050884;28;45445;-77
2024/01/28 06:37:25;;;;;;;;;14.50;11.75;;;;;13.92;41.44;102283.06;5052944;28;45654;-76
2024/01/28 06:39:51;;;;;;;;;17.25;16.75;;;;;13.84;41.54;102262.72;5053635;28;45506;-77
2024/01/28 06:42:20;;;;;;;;;11.50;11.50;;;;;13.98;41.36;102281.97;5056617;28;47017;-75
2024/01/28 06:44:47;;;;;;;;;16.25;16.25;;;;;13.98;41.69;102280.16;5057193;28;45420;-75
2024/01/28 06:47:12;;;;;;;;;11.50;11.50;;;;;14.03;41.83;102266.53;5056790;28;45526;-75
2024/01/28 06:49:38;;;;;;;;;15.50;12.75;;;;;14.01;41.69;102263.88;5056158;28;45448;-76
2024/01/28 06:52:04;;;;;;;;;12.75;12.75;;;;;13.97;41.57;102262.22;5054787;28;45482;-76
2024/01/28 06:54:29;;;;;;;;;14.50;14.50;;;;;13.97;41.43;102264.03;5072194;28;45443;-75
2024/01/28 06:56:54;;;;;;;;;15.75;14.50;;;;;13.96;41.95;102264.94;5055599;28;45385;-76
2024/01/28 06:59:20;;;;;;;;;15.50;15.50;;;;;14.02;41.57;102252.16;5056062;28;46031;-76
2024/01/28 07:01:45;;;;;;;;;14.75;14.75;;;;;14.00;41.96;102243.25;5056078;28;45208;-75
2024/01/28 07:04:11;;;;;;;;;15.50;14.00;;;;;13.94;41.88;102232.69;5053415;28;45284;-75
2024/01/28 07:06:36;;;;;;;;;16.75;14.50;;;;;14.06;41.94;102260.13;5055942;28;45924;-75
2024/01/28 07:09:02;;;;;;;;;13.75;13.00;;;;;14.08;41.70;102248.34;5055788;28;45409;-76
2024/01/28 07:11:27;;;;;;;;;14.75;14.75;;;;;14.10;41.76;102261.78;5055159;28;45581;-76
2024/01/28 07:13:53;;;;;;;;;18.50;12.25;;;;;14.11;41.56;102259.03;5054651;28;45436;-76
2024/01/28 07:16:19;;;;;;;;;16.00;13.50;;;;;14.11;41.44;102256.34;5054039;28;53776;-76
2024/01/28 07:18:45;;;;;;;;;14.50;12.75;;;;;14.03;41.48;102258.44;5055477;28;45408;-76
2024/01/28 07:21:11;;;;;;;;;15.75;11.75;;;;;13.94;41.66;102253.38;5064693;28;45543;-75
2024/01/28 07:23:37;;;;;;;;;14.75;14.75;;;;;13.95;41.44;102253.28;5058142;27;45398;-74
2024/01/28 07:26:03;;;;;;;;;17.75;10.75;;;;;13.88;41.49;102265.22;5056419;28;45414;-74
2024/01/28 07:28:28;;;;;;;;;12.25;12.25;;;;;13.85;41.76;102267.19;5053825;28;45496;-74
2024/01/28 07:30:54;;;;;;;;;14.50;13.50;;;;;13.79;41.88;102259.28;5056466;28;45434;-73
2024/01/28 07:33:19;;;;;;;;;12.75;12.75;;;;;13.69;42.17;102247.09;5055445;28;45290;-77
2024/01/28 07:35:45;;;;;;;;;14.75;13.50;;;;;13.79;41.94;102272.75;5055283;28;45503;-77
2024/01/28 07:38:10;;;;;;;;;18.00;15.50;;;;;13.78;41.94;102274.56;5055110;28;51177;-75
2024/01/28 07:40:35;;;;;;;;;15.50;15.50;;;;;13.81;42.17;102273.59;5053815;28;47371;-75
2024/01/28 07:43:02;;;;;;;;;24.75;15.75;;;;;13.72;41.91;102258.63;5056010;28;45395;-74
2024/01/28 07:45:27;;;;;;;;;12.50;12.50;;;;;13.64;41.89;102250.81;5056672;28;45291;-76
2024/01/28 07:47:53;;;;;;;;;20.00;15.00;;;;;13.77;42.07;102272.84;5054783;28;49953;-71
2024/01/28 07:50:18;;;;;;;;;16.50;12.75;;;;;13.69;41.98;102277.63;5055481;28;46077;-73
2024/01/28 07:52:44;;;;;;;;;14.00;14.00;;;;;13.63;42.47;102276.00;5056491;28;45563;-74
2024/01/28 07:55:11;;;;;;;;;16.50;14.50;;;;;13.66;42.29;102274.13;5056535;28;45499;-72
2024/01/28 07:57:37;;;;;;;;;19.25;14.50;;;;;13.70;42.29;102276.66;5056445;28;45426;-74
2024/01/28 08:00:04;;;;;;;;;19.00;12.00;;;;;13.74;42.41;102274.75;5055942;28;45953;-75
2024/01/28 08:02:30;;;;;;;;;16.50;15.50;;;;;13.80;42.08;102275.41;5056351;28;45327;-73
2024/01/28 08:04:55;;;;;;;;;13.25;13.25;;;;;13.58;42.47;102255.53;5054747;28;45486;-74
2024/01/28 08:07:21;;;;;;;;;13.75;13.50;;;;;13.70;42.15;102267.69;5056179;28;45535;-74
2024/01/28 08:09:46;;;;;;;;;11.50;11.50;;;;;13.78;42.03;102271.88;5056160;28;45340;-74
2024/01/28 08:12:11;;;;;;;;;22.00;15.00;;;;;13.77;42.12;102264.75;5055670;28;45408;-72
2024/01/28 08:14:37;;;;;;;;;12.75;12.25;;;;;13.83;41.86;102263.66;5055778;28;46881;-73
2024/01/28 08:17:02;;;;;;;;;15.75;15.00;;;;;13.85;42.42;102261.78;5055830;28;45422;-77
2024/01/28 08:19:27;;;;;;;;;19.25;19.25;;;;;13.97;42.38;102274.81;5053963;28;46398;-76
2024/01/28 08:21:53;;;;;;;;;19.50;14.50;;;;;13.87;41.89;102262.59;5056327;28;45343;-77
2024/01/28 08:24:18;;;;;;;;;15.75;15.75;;;;;13.93;42.09;102255.19;5056334;28;45388;-79
2024/01/28 08:26:43;;;;;;;;;16.75;14.00;;;;;14.07;41.87;102267.28;5055616;28;45578;-75
2024/01/28 08:29:09;;;;;;;;;15.00;15.00;;;;;14.01;42.09;102274.66;5054584;28;46157;-74
2024/01/28 08:31:35;;;;;;;;;20.25;16.50;;;;;13.97;41.90;102264.03;5055636;28;45502;-74
2024/01/28 08:34:03;;;;;;;;;16.00;16.00;;;;;14.04;41.95;102262.88;5054734;28;53686;-72
2024/01/28 08:36:28;;;;;;;;;20.00;17.75;;;;;14.10;42.03;102278.84;5052986;28;45461;-69
2024/01/28 08:38:53;;;;;;;;;15.25;14.75;;;;;14.18;41.81;102274.06;5054028;28;45898;-69
2024/01/28 08:41:19;;;;;;;;;18.50;18.50;;;;;14.10;41.92;102262.66;5054199;28;45555;-71
2024/01/28 08:43:46;;;;;;;;;17.00;15.00;;;;;14.13;41.99;102269.75;5055512;28;47352;-69
2024/01/28 08:46:11;;;;;;;;;14.75;14.75;;;;;14.15;41.93;102271.47;5054518;28;63384;-70
2024/01/28 08:48:37;;;;;;;;;19.00;18.25;;;;;14.26;41.48;102288.13;5054429;28;45927;-69
2024/01/28 08:51:02;;;;;;;;;20.25;17.25;;;;;14.25;41.84;102266.59;5054481;28;45410;-70
2024/01/28 08:53:27;;;;;;;;;18.25;18.25;;;;;14.36;41.61;102276.06;5055855;28;45507;-70
2024/01/28 08:55:55;;;;;;;;;13.50;12.50;;;;;14.38;41.18;102271.50;5054183;28;46323;-71
2024/01/28 08:58:21;;;;;;;;;17.25;16.25;;;;;14.37;41.67;102268.88;5055643;28;45262;-71
2024/01/28 09:00:47;;;;;;;;;20.00;18.75;;;;;14.38;41.36;102270.59;5055424;28;45358;-70
2024/01/28 09:03:12;;;;;;;;;21.75;20.00;;;;;14.41;41.55;102269.66;5054472;28;45582;-70
2024/01/28 09:05:37;;;;;;;;;19.50;17.75;;;;;14.33;41.34;102234.81;5055760;28;45720;-71
2024/01/28 09:08:03;;;;;;;;;14.00;14.00;;;;;14.57;41.50;102260.03;5055508;28;53511;-69
2024/01/28 09:10:28;;;;;;;;;13.50;13.50;;;;;14.55;41.21;102253.81;5053993;28;45541;-71
2024/01/28 09:12:54;;;;;;;;;17.25;16.75;;;;;14.56;41.48;102251.03;5055007;28;46826;-73
2024/01/28 09:15:19;;;;;;;;;17.00;13.50;;;;;14.59;41.16;102253.63;5054787;28;53432;-71
2024/01/28 09:17:44;;;;;;;;;20.50;17.75;;;;;14.63;41.02;102257.13;5055050;28;45834;-72
2024/01/28 09:20:10;;;;;;;;;19.75;17.50;;;;;14.79;41.22;102252.00;5054459;28;45378;-70
2024/01/28 09:22:36;;;;;;;;;15.50;12.75;;;;;14.79;41.34;102246.59;5055117;28;45172;-72
2024/01/28 09:25:03;;;;;;;;;17.50;17.50;;;;;14.81;41.11;102245.56;5055025;28;45476;-70
2024/01/28 09:27:29;;;;;;;;;15.00;14.75;;;;;14.87;41.21;102239.06;5053585;28;45713;-70
2024/01/28 09:29:54;;;;;;;;;13.00;13.00;;;;;14.90;41.13;102233.53;5054726;28;45496;-77
2024/01/28 09:32:19;;;;;;;;;18.00;16.25;;;;;15.04;41.09;102242.84;5054634;28;45363;-71
2024/01/28 09:34:45;;;;;;;;;14.50;14.50;;;;;14.98;40.77;102217.88;5054082;28;50222;-73
2024/01/28 09:37:12;;;;;;;;;18.50;17.75;;;;;15.16;40.66;102230.63;5054884;28;45410;-72
2024/01/28 09:39:37;;;;;;;;;16.50;16.00;;;;;15.23;40.65;102233.97;5054498;28;45532;-71
2024/01/28 09:42:15;;;;;;;;;20.00;15.25;;;;;15.23;40.46;102233.97;5054576;28;47348;-71
2024/01/28 09:44:40;;;;;;;;;16.00;13.50;;;;;15.17;40.33;102229.69;5048029;28;46172;-72
2024/01/28 09:47:07;;;;;;;;;25.75;18.25;;;;;15.15;40.32;102229.75;5054725;28;45354;-71
2024/01/28 09:49:41;;;;;;;;;16.50;14.50;;;;;15.19;40.34;102230.53;5051761;28;45326;-74
2024/01/28 09:52:11;;;;;;;;;19.25;18.25;;;;;15.25;40.14;102229.38;5053598;28;45335;-72
2024/01/28 09:54:46;;;;;;;;;18.75;16.50;;;;;15.23;40.45;102234.84;5054432;28;45360;-73
2024/01/28 09:57:14;;;;;;;;;16.75;16.75;;;;;15.10;40.72;102242.59;5054109;28;46033;-72
2024/01/28 09:59:39;;;;;;;;;19.75;16.75;;;;;14.91;40.75;102228.06;5053960;28;45709;-71
2024/01/28 10:02:06;;;;;;;;;19.75;19.50;;;;;14.97;40.63;102246.72;5053629;28;45526;-70
2024/01/28 10:04:32;;;;;;;;;4.25;1.00;;;;;14.95;40.83;102237.81;5054382;28;45477;-73
2024/01/28 10:06:59;;;;;;;;;21.50;18.75;;;;;15.10;40.75;102250.69;5054081;28;46639;-72
2024/01/28 10:09:28;;;;;;;;;18.25;16.00;;;;;15.12;40.52;102253.34;5054452;28;45358;-71
2024/01/28 10:11:57;;;;;;;;;19.00;19.00;;;;;15.03;41.02;102237.50;5054313;28;45327;-73
2024/01/28 10:14:22;;;;;;;;;27.50;18.75;;;;;15.03;40.62;102246.50;5054129;28;45352;-70
2024/01/28 10:16:50;;;;;;;;;21.00;21.00;;;;;15.09;40.91;102258.84;5053841;28;45437;-70
2024/01/28 10:19:16;;;;;;;;;20.25;18.50;;;;;15.13;40.91;102255.09;5053835;28;45394;-72
2024/01/28 10:21:42;;;;;;;;;19.50;18.00;;;;;15.23;40.75;102258.28;5054208;28;45298;-72
2024/01/28 10:24:12;;;;;;;;;22.50;20.50;;;;;15.17;40.87;102247.72;5052827;28;47207;-76
2024/01/28 10:26:38;;;;;;;;;21.25;21.25;;;;;15.22;40.72;102254.72;5053524;28;45529;-72
2024/01/28 10:29:04;;;;;;;;;27.00;20.50;;;;;15.29;40.85;102252.66;5052451;28;45429;-73
2024/01/28 10:31:30;;;;;;;;;22.75;22.75;;;;;15.33;40.53;102256.97;5052473;28;45398;-71
2024/01/28 10:33:55;;;;;;;;;26.25;22.50;;;;;15.39;40.69;102248.63;5053716;28;45294;-71
2024/01/28 10:36:21;;;;;;;;;25.25;22.00;;;;;15.57;40.37;102257.81;5058065;28;46011;-71
2024/01/28 10:38:48;;;;;;;;;25.00;21.75;;;;;15.60;40.19;102260.38;5058831;28;45459;-71
2024/01/28 10:41:17;;;;;;;;;20.50;16.75;;;;;15.66;40.17;102262.78;5056180;28;45347;-72
2024/01/28 10:43:57;;;;;;;;;18.25;18.25;;;;;15.72;40.38;102249.03;5053570;28;45498;-70
2024/01/28 10:46:31;;;;;;;;;20.00;18.00;;;;;15.82;40.06;102251.25;5053683;28;45453;-70
2024/01/28 10:49:04;;;;;;;;;19.50;19.25;;;;;15.83;39.87;102247.59;5053731;28;45421;-73
2024/01/28 10:51:32;;;;;;;;;23.25;19.75;;;;;15.86;39.45;102233.97;5053855;28;45461;-74
2024/01/28 10:53:59;;;;;;;;;28.00;22.00;;;;;15.84;39.77;102224.16;5053917;28;45464;-72
2024/01/28 10:56:25;;;;;;;;;23.00;19.25;;;;;15.91;40.01;102241.00;5053653;28;46337;-70
2024/01/28 10:58:51;;;;;;;;;20.75;19.25;;;;;15.94;40.06;102243.56;5053728;28;45366;-76
2024/01/28 11:01:17;;;;;;;;;18.50;18.50;;;;;15.92;40.23;102238.19;5053667;28;45742;-72
2024/01/28 11:03:44;;;;;;;;;25.00;23.00;;;;;15.95;40.06;102231.78;5053664;28;45416;-72
2024/01/28 11:06:09;;;;;;;;;24.75;24.75;;;;;15.96;39.77;102215.50;5053370;28;45422;-73
2024/01/28 11:08:35;;;;;;;;;23.00;22.75;;;;;16.14;39.97;102220.06;5053364;28;45416;-73
2024/01/28 11:11:00;;;;;;;;;21.50;18.75;;;;;16.16;39.67;102215.44;5053503;28;45413;-72
2024/01/28 11:13:25;;;;;;;;;27.75;22.50;;;;;16.38;39.54;102215.34;5053390;28;45383;-74
2024/01/28 11:15:54;;;;;;;;;20.25;19.50;;;;;16.46;39.41;102204.16;5051717;28;52699;-70
2024/01/28 11:18:27;;;;;;;;;22.75;20.25;;;;;16.59;39.13;102208.03;5053158;28;45342;-71
2024/01/28 11:20:52;;;;;;;;;21.25;20.00;;;;;16.67;38.77;102203.19;5056134;28;45310;-69
2024/01/28 11:23:19;;;;;;;;;20.00;19.00;;;;;16.81;38.92;102184.44;5053089;28;50108;-71
2024/01/28 11:25:45;;;;;;;;;23.50;23.50;;;;;17.04;38.66;102183.28;5054239;28;45441;-70
2024/01/28 11:28:13;;;;;;;;;21.25;21.25;;;;;17.20;38.39;102188.81;5055753;28;45295;-67
2024/01/28 11:30:39;;;;;;;;;17.00;17.00;;;;;17.35;38.23;102161.78;5056966;28;45432;-71
2024/01/28 11:33:13;;;;;;;;;28.50;23.50;;;;;17.76;37.18;102185.94;5056657;28;45481;-71
2024/01/28 11:35:43;;;;;;;;;22.50;17.75;;;;;17.84;36.97;102180.97;5056236;28;46632;-71
2024/01/28 11:38:14;;;;;;;;;25.50;23.50;;;;;18.02;36.86;102173.69;5057178;28;45499;-74
2024/01/28 11:40:40;;;;;;;;;28.75;24.00;;;;;18.31;36.46;102172.06;5057745;28;45243;-71
2024/01/28 11:43:07;;;;;;;;;24.00;24.00;;;;;18.79;36.02;102158.47;5056691;28;45535;-73
2024/01/28 11:45:35;;;;;;;;;22.25;22.00;;;;;19.33;35.18;102164.31;5056226;28;46313;-70
2024/01/28 11:48:09;;;;;;;;;26.00;24.50;;;;;19.54;35.01;102140.44;5056332;28;45439;-71
2024/01/28 11:50:35;;;;;;;;;26.00;24.50;;;;;19.72;34.40;102154.75;5056412;28;45234;-70
2024/01/28 11:53:00;;;;;;;;;23.25;21.50;;;;;19.78;34.06;102144.34;5056409;28;45271;-72
2024/01/28 11:55:26;;;;;;;;;21.50;21.50;;;;;20.02;34.26;102140.09;5056474;28;45857;-72
2024/01/28 11:57:51;;;;;;;;;21.00;20.75;;;;;20.15;33.79;102147.50;5056305;28;45246;-71
2024/01/28 12:00:17;;;;;;;;;27.00;27.00;;;;;20.32;33.63;102147.28;5056482;28;45629;-72
2024/01/28 12:02:43;;;;;;;;;23.75;22.00;;;;;20.44;33.58;102148.34;5056314;28;45348;-70
2024/01/28 12:05:10;;;;;;;;;25.00;23.50;;;;;20.53;33.51;102145.91;5056075;28;46124;-73
2024/01/28 12:07:37;;;;;;;;;24.00;24.00;;;;;20.72;33.42;102151.91;5056338;28;45458;-76
2024/01/28 12:10:07;;;;;;;;;32.50;27.75;;;;;20.77;32.99;102140.69;5056496;28;45375;-71
2024/01/28 12:12:34;;;;;;;;;24.00;21.25;;;;;20.81;32.85;102134.06;5056137;28;46195;-72
2024/01/28 12:15:02;;;;;;;;;35.50;29.00;;;;;20.81;32.96;102136.78;5056465;28;45483;-73
2024/01/28 12:17:27;;;;;;;;;26.25;26.25;;;;;20.75;32.92;102138.09;5056363;28;45458;-75
2024/01/28 12:19:53;;;;;;;;;25.25;24.75;;;;;20.72;33.34;102127.38;5056263;28;45460;-74
2024/01/28 12:22:18;;;;;;;;;29.50;26.50;;;;;20.56;33.47;102114.88;5055757;28;45457;-72
2024/01/28 12:24:47;;;;;;;;;30.75;30.75;;;;;20.51;33.67;102117.88;5055983;28;46298;-72
2024/01/28 12:27:14;;;;;;;;;19.75;19.25;;;;;20.42;33.71;102117.59;5054785;28;45370;-74
2024/01/28 12:29:41;;;;;;;;;26.50;24.00;;;;;20.38;33.80;102130.56;5054091;28;45538;-72
2024/01/28 12:32:08;;;;;;;;;29.50;26.25;;;;;20.25;34.13;102127.72;5054562;28;45427;-72
2024/01/28 12:34:34;;;;;;;;;14.50;13.00;;;;;20.13;34.28;102119.47;5054275;28;45456;-71
2024/01/28 12:37:01;;;;;;;;;27.00;25.25;;;;;20.11;34.42;102113.25;5070450;28;45424;-73
2024/01/28 12:39:26;;;;;;;;;27.75;23.25;;;;;20.02;34.83;102106.53;5055773;28;45275;-72
2024/01/28 12:41:51;;;;;;;;;23.25;23.25;;;;;20.06;34.75;102123.56;5055270;28;54008;-74
2024/01/28 12:44:17;;;;;;;;;21.25;21.25;;;;;20.00;34.68;102106.63;5055332;28;45499;-71
2024/01/28 12:46:42;;;;;;;;;27.50;25.25;;;;;20.08;34.54;102110.72;5055437;28;50137;-74
2024/01/28 12:49:08;;;;;;;;;22.00;20.25;;;;;20.07;34.64;102111.72;5055643;28;45435;-74
2024/01/28 12:51:34;;;;;;;;;26.75;25.50;;;;;19.93;34.92;102102.56;5055453;28;45385;-71
2024/01/28 12:54:00;;;;;;;;;22.50;22.50;;;;;19.94;34.98;102109.75;5055597;28;45544;-71
2024/01/28 12:56:25;;;;;;;;;22.00;19.75;;;;;19.93;34.66;102096.25;5055559;28;45417;-73
2024/01/28 12:58:50;;;;;;;;;23.50;23.50;;;;;19.95;34.87;102099.75;5055900;28;45476;-72
2024/01/28 13:01:16;;;;;;;;;25.25;25.00;;;;;19.86;35.13;102097.59;5055668;28;45408;-73
2024/01/28 13:03:43;;;;;;;;;28.25;24.50;;;;;19.81;35.01;102077.97;5055793;28;46620;-75
2024/01/28 13:06:08;;;;;;;;;26.50;24.25;;;;;19.88;35.05;102098.38;5050766;28;45505;-75
2024/01/28 13:08:34;;;;;;;;;23.25;21.75;;;;;19.85;35.25;102091.28;5059002;28;45424;-74
2024/01/28 13:11:01;;;;;;;;;22.75;20.00;;;;;19.80;35.21;102090.72;5055074;28;45359;-73
2024/01/28 13:13:27;;;;;;;;;24.50;23.75;;;;;19.67;35.64;102065.22;5054699;28;45748;-72
2024/01/28 13:15:53;;;;;;;;;24.00;21.50;;;;;19.79;35.59;102083.50;5063110;28;45387;-73
2024/01/28 13:18:18;;;;;;;;;21.50;20.75;;;;;19.90;35.60;102085.56;5069720;28;45385;-73
2024/01/28 13:20:44;;;;;;;;;23.75;21.25;;;;;19.87;35.49;102074.88;5056448;27;45416;-72
2024/01/28 13:23:10;;;;;;;;;23.75;22.00;;;;;19.84;35.40;102073.19;5061980;28;45377;-72
2024/01/28 13:25:35;;;;;;;;;25.75;23.25;;;;;19.72;35.18;102043.19;5054675;28;45532;-69
2024/01/28 13:28:00;;;;;;;;;22.50;21.50;;;;;19.81;35.41;102076.13;5054332;28;45325;-70
2024/01/28 13:30:26;;;;;;;;;20.75;20.75;;;;;19.84;35.66;102067.75;5054434;28;45464;-71
2024/01/28 13:32:51;;;;;;;;;22.00;22.00;;;;;19.77;35.42;102074.56;5054234;28;46081;-71
2024/01/28 13:35:16;;;;;;;;;18.75;18.75;;;;;19.79;35.67;102078.06;5053310;28;45439;-69
2024/01/28 13:37:42;;;;;;;;;23.25;21.50;;;;;19.69;35.40;102054.25;5053550;28;45383;-72
2024/01/28 13:40:08;;;;;;;;;24.75;22.75;;;;;19.61;35.67;102046.59;5055321;28;45719;-72
2024/01/28 13:42:34;;;;;;;;;22.25;20.00;;;;;19.68;35.72;102053.38;5054924;28;46646;-70
2024/01/28 13:44:59;;;;;;;;;27.00;24.50;;;;;19.80;35.71;102065.34;5055035;28;45362;-70
2024/01/28 13:47:25;;;;;;;;;22.75;20.25;;;;;19.73;35.79;102053.97;5054886;28;45489;-71
2024/01/28 13:49:51;;;;;;;;;24.50;22.00;;;;;19.79;35.74;102059.03;5053813;28;45819;-71
2024/01/28 13:52:16;;;;;;;;;21.00;18.50;;;;;19.79;35.73;102053.59;5054343;28;45372;-72
2024/01/28 13:54:41;;;;;;;;;23.25;21.75;;;;;19.76;36.15;102050.16;5054956;28;45218;-71
2024/01/28 13:57:09;;;;;;;;;26.50;22.25;;;;;19.80;35.84;102052.63;5054545;28;45591;-72
2024/01/28 13:59:34;;;;;;;;;22.25;22.25;;;;;19.74;36.05;102033.06;5054704;28;45266;-71
2024/01/28 14:02:01;;;;;;;;;2.50;1.50;;;;;19.70;36.27;102040.56;5054402;28;45331;-71
2024/01/28 14:04:27;;;;;;;;;25.00;23.75;;;;;19.72;36.08;102041.34;5054203;28;45531;-70
2024/01/28 14:06:52;;;;;;;;;22.50;22.50;;;;;19.68;35.96;102037.06;5052656;28;45495;-71
2024/01/28 14:09:18;;;;;;;;;25.25;20.25;;;;;19.60;36.41;102021.22;5054099;28;45352;-75
2024/01/28 14:11:43;;;;;;;;;22.75;22.75;;;;;19.67;36.26;102027.13;5054184;28;45426;-73
2024/01/28 14:14:09;;;;;;;;;21.75;21.75;;;;;19.73;36.51;102043.09;5052579;28;45594;-74
2024/01/28 14:16:35;;;;;;;;;30.00;24.00;;;;;19.73;36.45;102050.38;5054472;28;45378;-73
2024/01/28 14:19:00;;;;;;;;;23.00;20.75;;;;;19.82;36.48;102041.63;5053736;28;45567;-73
2024/01/28 14:21:28;;;;;;;;;22.75;22.75;;;;;19.86;36.76;102035.88;5044886;28;46337;-73
2024/01/28 14:23:54;;;;;;;;;17.00;17.00;;;;;19.83;36.48;102027.91;5043816;28;45426;-73
2024/01/28 14:26:19;;;;;;;;;27.25;23.75;;;;;19.89;36.43;102034.81;5054287;28;45438;-72
2024/01/28 14:28:45;;;;;;;;;26.50;23.25;;;;;19.86;36.17;102021.41;5047165;28;45665;-74
2024/01/28 14:31:10;;;;;;;;;26.75;23.50;;;;;19.86;36.37;102029.56;5053866;28;45482;-74
2024/01/28 14:33:35;;;;;;;;;22.25;21.25;;;;;19.93;36.65;102026.34;5053928;28;45286;-73
2024/01/28 14:36:01;;;;;;;;;29.25;21.75;;;;;19.86;36.38;102018.69;5053467;28;45384;-73
2024/01/28 14:38:26;;;;;;;;;26.25;24.50;;;;;19.89;36.67;102024.81;5053562;28;47049;-73
2024/01/28 14:40:51;;;;;;;;;13.50;13.50;;;;;19.87;36.46;102014.97;5053288;28;45589;-74
2024/01/28 14:43:19;;;;;;;;;23.25;21.25;;;;;19.82;36.32;102017.16;5053690;28;45428;-72
2024/01/28 14:45:45;;;;;;;;;23.50;20.50;;;;;19.87;36.23;102017.72;5052906;28;45379;-75
2024/01/28 14:48:10;;;;;;;;;26.00;25.25;;;;;19.94;36.70;102019.06;5053124;28;45422;-73
2024/01/28 14:50:39;;;;;;;;;28.50;23.25;;;;;19.94;36.71;102019.06;5053624;28;46092;-72
2024/01/28 14:53:05;;;;;;;;;24.25;19.50;;;;;20.02;36.37;102017.59;5053530;28;45452;-73
2024/01/28 14:55:30;;;;;;;;;26.25;26.25;;;;;20.07;36.52;102019.16;5045970;28;45639;-71
2024/01/28 14:57:55;;;;;;;;;25.75;24.25;;;;;20.15;36.54;102023.13;5046192;28;45544;-73
2024/01/28 15:00:21;;;;;;;;;27.75;24.00;;;;;20.17;36.13;102023.88;5053300;28;45826;-72
2024/01/28 15:02:46;;;;;;;;;26.50;25.25;;;;;20.16;36.34;102018.53;5055354;28;53000;-73
2024/01/28 15:05:11;;;;;;;;;25.50;22.00;;;;;20.15;35.69;102016.78;5055734;28;46096;-74
2024/01/28 15:07:37;;;;;;;;;28.00;25.50;;;;;20.18;36.04;102024.75;5055402;28;45389;-76
2024/01/28 15:10:03;;;;;;;;;27.00;24.25;;;;;20.20;36.36;102022.78;5057388;28;45325;-74
2024/01/28 15:12:28;;;;;;;;;21.75;21.75;;;;;20.05;36.47;102007.47;5056759;28;45346;-77
2024/01/28 15:14:54;;;;;;;;;25.25;22.25;;;;;20.00;36.19;102007.75;5056821;28;45475;-75
2024/01/28 15:17:19;;;;;;;;;19.75;19.75;;;;;20.05;36.28;102019.25;5072463;28;46876;-74
2024/01/28 15:19:45;;;;;;;;;24.00;22.00;;;;;20.00;36.33;102005.91;5056830;28;45577;-76
2024/01/28 15:22:11;;;;;;;;;24.00;24.00;;;;;19.99;36.34;101993.28;5056757;28;45324;-77
2024/01/28 15:24:37;;;;;;;;;21.75;21.00;;;;;20.13;36.66;102016.00;5057500;28;45483;-77
2024/01/28 15:27:02;;;;;;;;;23.25;23.25;;;;;20.05;36.72;102007.47;5056313;28;48910;-77
2024/01/28 15:29:27;;;;;;;;;25.50;25.50;;;;;20.03;36.56;102018.47;5056994;28;46300;-74
2024/01/28 15:31:53;;;;;;;;;22.50;19.00;;;;;19.99;36.33;102020.50;5056498;28;45219;-76
2024/01/28 15:34:19;;;;;;;;;22.00;22.00;;;;;19.94;36.57;102017.22;5055431;28;45515;-75
2024/01/28 15:36:45;;;;;;;;;28.00;23.25;;;;;19.73;36.82;102018.59;5050866;28;45765;-74
2024/01/28 15:39:11;;;;;;;;;21.25;17.50;;;;;19.76;37.01;102021.09;5051764;28;46483;-74
2024/01/28 15:41:37;;;;;;;;;26.25;23.00;;;;;19.69;36.97;102013.44;5056521;28;45515;-73
2024/01/28 15:44:02;;;;;;;;;24.75;23.00;;;;;19.74;37.07;102024.88;5056838;28;45326;-73
2024/01/28 15:46:28;;;;;;;;;22.50;21.00;;;;;19.67;36.97;102027.13;5057113;28;45465;-73
2024/01/28 15:48:55;;;;;;;;;24.25;23.00;;;;;19.60;37.14;102014.91;5055752;28;45581;-76
2024/01/28 15:51:20;;;;;;;;;21.75;21.25;;;;;19.59;37.27;102029.47;5054880;28;45351;-74
2024/01/28 15:53:46;;;;;;;;;22.00;21.50;;;;;19.53;37.39;102025.31;5056373;28;45401;-74
2024/01/28 15:56:14;;;;;;;;;25.50;23.75;;;;;19.48;37.68;102034.72;5052509;28;46878;-74
2024/01/28 15:58:39;;;;;;;;;25.00;22.50;;;;;19.39;37.14;102030.72;5054254;28;45764;-75
2024/01/28 16:01:05;;;;;;;;;27.00;22.25;;;;;19.35;37.80;102029.13;5053826;28;45305;-72
2024/01/28 16:03:30;;;;;;;;;21.50;21.50;;;;;19.32;38.02;102033.88;5052743;28;45501;-75
2024/01/28 16:05:56;;;;;;;;;21.25;21.25;;;;;19.27;37.89;102032.34;5053783;28;53330;-74